PWSweather.com
Personal Weather Stations
Station Observations
MART18
Seleziona Stato..., MartinsicuroIT italia

Seleziona Stato...MartinsicuroIT italia

Lat: 42.885169, Lon: 13.918447300000025

Elevation: 3

Station Type: Davis vantage vp2

branciuno67@gmail.com

High Low Average
Temperature 86.2°F30.1°C 70.5°F21.4°C 79.3°F26.3°C
Dew Point 71.6°F22.0°C 57.4°F14.1°C 65.0°F18.3°C
Winds 6.0 mph 9.7 kmh Calm Calm 3.0 mph SW4.8 kmh SW
Wind Gusts 11.0 mph17.7 kmh -- 6.0 mph9.7 kmh
Humidity 71% 49% 62%
Pressure 29.84 in1010.5 mb 29.73 in1006.8 mb -
Precipitation 0.00 in0.0 mm - -
Hour Temp Dew Point Humidity Winds Wind Gusts Pressure Precip Precip Rate Daily Precip Total
12:03 AM 75.9°F24.4°C 62.8°F17.1°C 64% 2.0 mph W3.2 kmh W 6.0 mph9.7 kmh 29.84 in1010.5 mb 0.00 in0.0 mm 0.00 in0.0 mm 0.00 in0.0 mm
12:08 AM 75.9°F24.4°C 62.4°F16.9°C 63% 2.0 mph W3.2 kmh W 8.1 mph13.0 kmh 29.84 in1010.5 mb 0.00 in0.0 mm 0.00 in0.0 mm 0.00 in0.0 mm
12:13 AM 76.3°F24.6°C 62.2°F16.8°C 62% 2.9 mph W4.7 kmh W 6.0 mph9.7 kmh 29.84 in1010.5 mb 0.00 in0.0 mm 0.00 in0.0 mm 0.00 in0.0 mm
12:18 AM 76.3°F24.6°C 61.9°F16.6°C 61% 2.9 mph NW4.7 kmh NW 9.0 mph14.5 kmh 29.83 in1010.2 mb 0.00 in0.0 mm 0.00 in0.0 mm 0.00 in0.0 mm
12:23 AM 76.6°F24.8°C 62.2°F16.8°C 61% 2.9 mph WNW4.7 kmh WNW 6.9 mph11.1 kmh 29.83 in1010.2 mb 0.00 in0.0 mm 0.00 in0.0 mm 0.00 in0.0 mm
12:28 AM 76.6°F24.8°C 61.7°F16.5°C 60% 2.9 mph NW4.7 kmh NW 8.1 mph13.0 kmh 29.83 in1010.2 mb 0.00 in0.0 mm 0.00 in0.0 mm 0.00 in0.0 mm
12:33 AM 76.8°F24.9°C 61.9°F16.6°C 60% 4.0 mph W6.4 kmh W 8.9 mph14.3 kmh 29.83 in1010.2 mb 0.00 in0.0 mm 0.00 in0.0 mm 0.00 in0.0 mm
12:38 AM 76.6°F24.8°C 61.2°F16.2°C 59% 4.0 mph NW6.4 kmh NW 8.1 mph13.0 kmh 29.83 in1010.2 mb 0.00 in0.0 mm 0.00 in0.0 mm 0.00 in0.0 mm
12:43 AM 76.6°F24.8°C 61.2°F16.2°C 59% 4.0 mph W6.4 kmh W 6.9 mph11.1 kmh 29.83 in1010.2 mb 0.00 in0.0 mm 0.00 in0.0 mm 0.00 in0.0 mm
12:48 AM 76.6°F24.8°C 61.2°F16.2°C 59% 4.0 mph NW6.4 kmh NW 8.1 mph13.0 kmh 29.83 in1010.2 mb 0.00 in0.0 mm 0.00 in0.0 mm 0.00 in0.0 mm
12:53 AM 76.5°F24.7°C 61.0°F16.1°C 59% 4.0 mph WNW6.4 kmh WNW 6.9 mph11.1 kmh 29.83 in1010.2 mb 0.00 in0.0 mm 0.00 in0.0 mm 0.00 in0.0 mm
12:58 AM 76.1°F24.5°C 61.2°F16.2°C 60% 4.0 mph NW6.4 kmh NW 9.0 mph14.5 kmh 29.82 in1009.8 mb 0.00 in0.0 mm 0.00 in0.0 mm 0.00 in0.0 mm
01:03 AM 75.6°F24.2°C 61.2°F16.2°C 61% 4.0 mph WSW6.4 kmh WSW 8.9 mph14.3 kmh 29.82 in1009.8 mb 0.00 in0.0 mm 0.00 in0.0 mm 0.00 in0.0 mm
01:08 AM 75.0°F23.9°C 61.2°F16.2°C 62% 4.0 mph W6.4 kmh W 8.9 mph14.3 kmh 29.82 in1009.8 mb 0.00 in0.0 mm 0.00 in0.0 mm 0.00 in0.0 mm
01:13 AM 74.7°F23.7°C 61.2°F16.2°C 63% 4.0 mph NW6.4 kmh NW 8.1 mph13.0 kmh 29.82 in1009.8 mb 0.00 in0.0 mm 0.00 in0.0 mm 0.00 in0.0 mm
01:18 AM 74.7°F23.7°C 61.2°F16.2°C 63% 2.9 mph NW4.7 kmh NW 6.0 mph9.7 kmh 29.82 in1009.8 mb 0.00 in0.0 mm 0.00 in0.0 mm 0.00 in0.0 mm
01:23 AM 74.7°F23.7°C 60.8°F16.0°C 62% 2.9 mph NW4.7 kmh NW 6.9 mph11.1 kmh 29.82 in1009.8 mb 0.00 in0.0 mm 0.00 in0.0 mm 0.00 in0.0 mm
01:28 AM 75.0°F23.9°C 61.2°F16.2°C 62% 2.9 mph W4.7 kmh W 6.0 mph9.7 kmh 29.82 in1009.8 mb 0.00 in0.0 mm 0.00 in0.0 mm 0.00 in0.0 mm
01:33 AM 75.4°F24.1°C 60.4°F15.8°C 60% 2.9 mph WSW4.7 kmh WSW 8.1 mph13.0 kmh 29.82 in1009.8 mb 0.00 in0.0 mm 0.00 in0.0 mm 0.00 in0.0 mm
01:38 AM 75.7°F24.3°C 60.4°F15.8°C 59% 4.0 mph W6.4 kmh W 8.1 mph13.0 kmh 29.82 in1009.8 mb 0.00 in0.0 mm 0.00 in0.0 mm 0.00 in0.0 mm
01:43 AM 75.9°F24.4°C 60.6°F15.9°C 59% 2.9 mph NW4.7 kmh NW 6.9 mph11.1 kmh 29.82 in1009.8 mb 0.00 in0.0 mm 0.00 in0.0 mm 0.00 in0.0 mm
01:48 AM 75.9°F24.4°C 60.1°F15.6°C 58% 2.9 mph W4.7 kmh W 6.9 mph11.1 kmh 29.82 in1009.8 mb 0.00 in0.0 mm 0.00 in0.0 mm 0.00 in0.0 mm
01:53 AM 75.9°F24.4°C 60.1°F15.6°C 58% 2.9 mph WNW4.7 kmh WNW 8.1 mph13.0 kmh 29.82 in1009.8 mb 0.00 in0.0 mm 0.00 in0.0 mm 0.00 in0.0 mm
01:58 AM 75.9°F24.4°C 60.1°F15.6°C 58% 2.9 mph NW4.7 kmh NW 4.0 mph6.4 kmh 29.82 in1009.8 mb 0.00 in0.0 mm 0.00 in0.0 mm 0.00 in0.0 mm
02:03 AM 75.7°F24.3°C 60.4°F15.8°C 59% 2.0 mph W3.2 kmh W 6.9 mph11.1 kmh 29.81 in1009.5 mb 0.00 in0.0 mm 0.00 in0.0 mm 0.00 in0.0 mm
02:08 AM 75.6°F24.2°C 60.3°F15.7°C 59% 2.9 mph NW4.7 kmh NW 10.1 mph16.3 kmh 29.81 in1009.5 mb 0.00 in0.0 mm 0.00 in0.0 mm 0.00 in0.0 mm
02:13 AM 75.0°F23.9°C 60.3°F15.7°C 60% 2.9 mph NW4.7 kmh NW 8.1 mph13.0 kmh 29.81 in1009.5 mb 0.00 in0.0 mm 0.00 in0.0 mm 0.00 in0.0 mm
02:18 AM 74.8°F23.8°C 60.4°F15.8°C 61% 4.0 mph W6.4 kmh W 8.9 mph14.3 kmh 29.81 in1009.5 mb 0.00 in0.0 mm 0.00 in0.0 mm 0.00 in0.0 mm
02:23 AM 74.8°F23.8°C 60.1°F15.6°C 60% 4.0 mph WNW6.4 kmh WNW 8.9 mph14.3 kmh 29.81 in1009.5 mb 0.00 in0.0 mm 0.00 in0.0 mm 0.00 in0.0 mm
02:28 AM 75.0°F23.9°C 59.7°F15.4°C 59% 4.0 mph WNW6.4 kmh WNW 8.1 mph13.0 kmh 29.81 in1009.5 mb 0.00 in0.0 mm 0.00 in0.0 mm 0.00 in0.0 mm
02:33 AM 75.9°F24.4°C 60.1°F15.6°C 58% 2.9 mph W4.7 kmh W 8.1 mph13.0 kmh 29.80 in1009.1 mb 0.00 in0.0 mm 0.00 in0.0 mm 0.00 in0.0 mm
02:38 AM 75.9°F24.4°C 60.1°F15.6°C 58% 2.0 mph W3.2 kmh W 2.9 mph4.7 kmh 29.80 in1009.1 mb 0.00 in0.0 mm 0.00 in0.0 mm 0.00 in0.0 mm
02:43 AM 75.7°F24.3°C 59.9°F15.5°C 58% 0.9 mph NNW1.4 kmh NNW 2.9 mph4.7 kmh 29.80 in1009.1 mb 0.00 in0.0 mm 0.00 in0.0 mm 0.00 in0.0 mm
02:48 AM 74.3°F23.5°C 59.9°F15.5°C 61% 2.0 mph NNW3.2 kmh NNW 8.9 mph14.3 kmh 29.80 in1009.1 mb 0.00 in0.0 mm 0.00 in0.0 mm 0.00 in0.0 mm
02:53 AM 73.0°F22.8°C 60.1°F15.6°C 64% 4.0 mph WNW6.4 kmh WNW 10.1 mph16.3 kmh 29.80 in1009.1 mb 0.00 in0.0 mm 0.00 in0.0 mm 0.00 in0.0 mm
02:58 AM 72.3°F22.4°C 59.9°F15.5°C 65% 4.0 mph NW6.4 kmh NW 8.1 mph13.0 kmh 29.80 in1009.1 mb 0.00 in0.0 mm 0.00 in0.0 mm 0.00 in0.0 mm
03:03 AM 72.1°F22.3°C 59.7°F15.4°C 65% 2.9 mph NW4.7 kmh NW 6.9 mph11.1 kmh 29.80 in1009.1 mb 0.00 in0.0 mm 0.00 in0.0 mm 0.00 in0.0 mm
03:08 AM 72.1°F22.3°C 59.7°F15.4°C 65% 4.0 mph NW6.4 kmh NW 6.9 mph11.1 kmh 29.80 in1009.1 mb 0.00 in0.0 mm 0.00 in0.0 mm 0.00 in0.0 mm
03:13 AM 72.7°F22.6°C 59.7°F15.4°C 64% 2.9 mph NW4.7 kmh NW 6.0 mph9.7 kmh 29.80 in1009.1 mb 0.00 in0.0 mm 0.00 in0.0 mm 0.00 in0.0 mm
03:18 AM 73.0°F22.8°C 59.7°F15.4°C 63% 2.9 mph NW4.7 kmh NW 4.9 mph7.9 kmh 29.80 in1009.1 mb 0.00 in0.0 mm 0.00 in0.0 mm 0.00 in0.0 mm
03:23 AM 73.4°F23.0°C 59.2°F15.1°C 61% 2.9 mph WNW4.7 kmh WNW 6.9 mph11.1 kmh 29.80 in1009.1 mb 0.00 in0.0 mm 0.00 in0.0 mm 0.00 in0.0 mm
03:28 AM 73.6°F23.1°C 58.8°F14.9°C 60% 2.9 mph NW4.7 kmh NW 8.1 mph13.0 kmh 29.80 in1009.1 mb 0.00 in0.0 mm 0.00 in0.0 mm 0.00 in0.0 mm
03:33 AM 73.6°F23.1°C 58.8°F14.9°C 60% 4.0 mph NW6.4 kmh NW 6.9 mph11.1 kmh 29.80 in1009.1 mb 0.00 in0.0 mm 0.00 in0.0 mm 0.00 in0.0 mm
03:38 AM 73.8°F23.2°C 59.0°F15.0°C 60% 4.0 mph NW6.4 kmh NW 6.9 mph11.1 kmh 29.80 in1009.1 mb 0.00 in0.0 mm 0.00 in0.0 mm 0.00 in0.0 mm
03:43 AM 73.8°F23.2°C 59.0°F15.0°C 60% 2.9 mph NW4.7 kmh NW 6.9 mph11.1 kmh 29.79 in1008.8 mb 0.00 in0.0 mm 0.00 in0.0 mm 0.00 in0.0 mm
03:48 AM 73.9°F23.3°C 58.6°F14.8°C 59% 2.9 mph NW4.7 kmh NW 6.0 mph9.7 kmh 29.80 in1009.1 mb 0.00 in0.0 mm 0.00 in0.0 mm 0.00 in0.0 mm
03:53 AM 73.8°F23.2°C 58.5°F14.7°C 59% 2.9 mph W4.7 kmh W 4.9 mph7.9 kmh 29.80 in1009.1 mb 0.00 in0.0 mm 0.00 in0.0 mm 0.00 in0.0 mm
03:58 AM 73.6°F23.1°C 58.3°F14.6°C 59% 2.9 mph NW4.7 kmh NW 6.0 mph9.7 kmh 29.79 in1008.8 mb 0.00 in0.0 mm 0.00 in0.0 mm 0.00 in0.0 mm
04:03 AM 73.4°F23.0°C 58.6°F14.8°C 60% 2.9 mph NW4.7 kmh NW 4.9 mph7.9 kmh 29.79 in1008.8 mb 0.00 in0.0 mm 0.00 in0.0 mm 0.00 in0.0 mm
04:08 AM 73.2°F22.9°C 58.5°F14.7°C 60% 0.9 mph WNW1.4 kmh WNW 2.9 mph4.7 kmh 29.79 in1008.8 mb 0.00 in0.0 mm 0.00 in0.0 mm 0.00 in0.0 mm
04:13 AM 73.0°F22.8°C 58.3°F14.6°C 60% 0.9 mph WNW1.4 kmh WNW 2.9 mph4.7 kmh 29.79 in1008.8 mb 0.00 in0.0 mm 0.00 in0.0 mm 0.00 in0.0 mm
04:18 AM 73.0°F22.8°C 58.3°F14.6°C 60% 0.9 mph SW1.4 kmh SW 5.0 mph8.0 kmh 29.79 in1008.8 mb 0.00 in0.0 mm 0.00 in0.0 mm 0.00 in0.0 mm
04:23 AM 72.9°F22.7°C 58.6°F14.8°C 61% 0.9 mph W1.4 kmh W 4.0 mph6.4 kmh 29.79 in1008.8 mb 0.00 in0.0 mm 0.00 in0.0 mm 0.00 in0.0 mm
04:28 AM 72.1°F22.3°C 58.5°F14.7°C 62% 2.0 mph W3.2 kmh W 4.0 mph6.4 kmh 29.79 in1008.8 mb 0.00 in0.0 mm 0.00 in0.0 mm 0.00 in0.0 mm
04:33 AM 71.8°F22.1°C 58.5°F14.7°C 63% 0.9 mph NW1.4 kmh NW 4.0 mph6.4 kmh 29.79 in1008.8 mb 0.00 in0.0 mm 0.00 in0.0 mm 0.00 in0.0 mm
04:38 AM 71.4°F21.9°C 58.1°F14.5°C 63% 2.0 mph WNW3.2 kmh WNW 4.0 mph6.4 kmh 29.79 in1008.8 mb 0.00 in0.0 mm 0.00 in0.0 mm 0.00 in0.0 mm
04:43 AM 71.4°F21.9°C 58.1°F14.5°C 63% 2.0 mph NW3.2 kmh NW 5.0 mph8.0 kmh 29.79 in1008.8 mb 0.00 in0.0 mm 0.00 in0.0 mm 0.00 in0.0 mm
04:48 AM 71.4°F21.9°C 58.1°F14.5°C 63% 2.9 mph NNW4.7 kmh NNW 7.0 mph11.3 kmh 29.79 in1008.8 mb 0.00 in0.0 mm 0.00 in0.0 mm 0.00 in0.0 mm
04:53 AM 71.1°F21.7°C 58.3°F14.6°C 64% 2.9 mph W4.7 kmh W 8.1 mph13.0 kmh 29.79 in1008.8 mb 0.00 in0.0 mm 0.00 in0.0 mm 0.00 in0.0 mm
04:58 AM 70.9°F21.6°C 58.1°F14.5°C 64% 4.0 mph WNW6.4 kmh WNW 10.1 mph16.3 kmh 29.80 in1009.1 mb 0.00 in0.0 mm 0.00 in0.0 mm 0.00 in0.0 mm
05:03 AM 71.1°F21.7°C 57.7°F14.3°C 63% 4.0 mph NW6.4 kmh NW 8.9 mph14.3 kmh 29.80 in1009.1 mb 0.00 in0.0 mm 0.00 in0.0 mm 0.00 in0.0 mm
05:08 AM 71.1°F21.7°C 57.7°F14.3°C 63% 2.9 mph NW4.7 kmh NW 4.9 mph7.9 kmh 29.80 in1009.1 mb 0.00 in0.0 mm 0.00 in0.0 mm 0.00 in0.0 mm
05:13 AM 71.2°F21.8°C 57.9°F14.4°C 63% 2.0 mph NW3.2 kmh NW 4.0 mph6.4 kmh 29.80 in1009.1 mb 0.00 in0.0 mm 0.00 in0.0 mm 0.00 in0.0 mm
05:18 AM 71.4°F21.9°C 57.7°F14.3°C 62% 0.9 mph WNW1.4 kmh WNW 4.0 mph6.4 kmh 29.80 in1009.1 mb 0.00 in0.0 mm 0.00 in0.0 mm 0.00 in0.0 mm
05:23 AM 71.4°F21.9°C 57.7°F14.3°C 62% 2.0 mph W3.2 kmh W 4.0 mph6.4 kmh 29.80 in1009.1 mb 0.00 in0.0 mm 0.00 in0.0 mm 0.00 in0.0 mm
05:28 AM 71.2°F21.8°C 57.6°F14.2°C 62% 2.0 mph NW3.2 kmh NW 4.0 mph6.4 kmh 29.80 in1009.1 mb 0.00 in0.0 mm 0.00 in0.0 mm 0.00 in0.0 mm
05:33 AM 71.2°F21.8°C 57.6°F14.2°C 62% 0.9 mph NW1.4 kmh NW 2.9 mph4.7 kmh 29.80 in1009.1 mb 0.00 in0.0 mm 0.00 in0.0 mm 0.00 in0.0 mm
05:38 AM 70.9°F21.6°C 57.7°F14.3°C 63% 0.9 mph NNW1.4 kmh NNW 2.9 mph4.7 kmh 29.80 in1009.1 mb 0.00 in0.0 mm 0.00 in0.0 mm 0.00 in0.0 mm
05:43 AM 70.5°F21.4°C 57.7°F14.3°C 64% 2.0 mph NW3.2 kmh NW 7.0 mph11.3 kmh 29.80 in1009.1 mb 0.00 in0.0 mm 0.00 in0.0 mm 0.00 in0.0 mm
05:48 AM 70.5°F21.4°C 57.4°F14.1°C 63% 2.0 mph WNW3.2 kmh WNW 4.9 mph7.9 kmh 29.80 in1009.1 mb 0.00 in0.0 mm 0.00 in0.0 mm 0.00 in0.0 mm
05:53 AM 70.7°F21.5°C 57.9°F14.4°C 64% 2.0 mph NNW3.2 kmh NNW 4.9 mph7.9 kmh 29.80 in1009.1 mb 0.00 in0.0 mm 0.00 in0.0 mm 0.00 in0.0 mm
05:58 AM 70.9°F21.6°C 58.1°F14.5°C 64% 0.9 mph NNW1.4 kmh NNW 4.0 mph6.4 kmh 29.80 in1009.1 mb 0.00 in0.0 mm 0.00 in0.0 mm 0.00 in0.0 mm
06:03 AM 70.9°F21.6°C 57.7°F14.3°C 63% 0.9 mph NW1.4 kmh NW 4.0 mph6.4 kmh 29.80 in1009.1 mb 0.00 in0.0 mm 0.00 in0.0 mm 0.00 in0.0 mm
06:08 AM 71.1°F21.7°C 57.7°F14.3°C 63% 2.0 mph NW3.2 kmh NW 4.0 mph6.4 kmh 29.80 in1009.1 mb 0.00 in0.0 mm 0.00 in0.0 mm 0.00 in0.0 mm
06:13 AM 71.2°F21.8°C 57.9°F14.4°C 63% 2.0 mph NW3.2 kmh NW 6.0 mph9.7 kmh 29.80 in1009.1 mb 0.00 in0.0 mm 0.00 in0.0 mm 0.00 in0.0 mm
06:18 AM 71.1°F21.7°C 57.7°F14.3°C 63% 2.9 mph NW4.7 kmh NW 8.1 mph13.0 kmh 29.80 in1009.1 mb 0.00 in0.0 mm 0.00 in0.0 mm 0.00 in0.0 mm
06:23 AM 71.1°F21.7°C 57.7°F14.3°C 63% 4.0 mph WNW6.4 kmh WNW 9.0 mph14.5 kmh 29.80 in1009.1 mb 0.00 in0.0 mm 0.00 in0.0 mm 0.00 in0.0 mm
06:28 AM 71.1°F21.7°C 57.7°F14.3°C 63% 4.9 mph WNW7.9 kmh WNW 8.9 mph14.3 kmh 29.80 in1009.1 mb 0.00 in0.0 mm 0.00 in0.0 mm 0.00 in0.0 mm
06:33 AM 71.2°F21.8°C 57.9°F14.4°C 63% 4.9 mph NW7.9 kmh NW 8.1 mph13.0 kmh 29.80 in1009.1 mb 0.00 in0.0 mm 0.00 in0.0 mm 0.00 in0.0 mm
06:38 AM 71.6°F22.0°C 57.9°F14.4°C 62% 4.0 mph NW6.4 kmh NW 6.9 mph11.1 kmh 29.80 in1009.1 mb 0.00 in0.0 mm 0.00 in0.0 mm 0.00 in0.0 mm
06:43 AM 72.1°F22.3°C 57.9°F14.4°C 61% 2.9 mph NW4.7 kmh NW 4.9 mph7.9 kmh 29.80 in1009.1 mb 0.00 in0.0 mm 0.00 in0.0 mm 0.00 in0.0 mm
06:48 AM 72.5°F22.5°C 58.3°F14.6°C 61% 2.0 mph WNW3.2 kmh WNW 2.9 mph4.7 kmh 29.80 in1009.1 mb 0.00 in0.0 mm 0.00 in0.0 mm 0.00 in0.0 mm
06:53 AM 73.0°F22.8°C 58.3°F14.6°C 60% 2.0 mph NW3.2 kmh NW 2.9 mph4.7 kmh 29.80 in1009.1 mb 0.00 in0.0 mm 0.00 in0.0 mm 0.00 in0.0 mm
06:58 AM 73.4°F23.0°C 58.6°F14.8°C 60% 2.0 mph NW3.2 kmh NW 5.0 mph8.0 kmh 29.80 in1009.1 mb 0.00 in0.0 mm 0.00 in0.0 mm 0.00 in0.0 mm
07:03 AM 73.6°F23.1°C 58.3°F14.6°C 59% 2.9 mph NNW4.7 kmh NNW 7.0 mph11.3 kmh 29.80 in1009.1 mb 0.00 in0.0 mm 0.00 in0.0 mm 0.00 in0.0 mm
07:08 AM 73.9°F23.3°C 58.3°F14.6°C 58% 2.9 mph WNW4.7 kmh WNW 8.1 mph13.0 kmh 29.80 in1009.1 mb 0.00 in0.0 mm 0.00 in0.0 mm 0.00 in0.0 mm
07:13 AM 74.3°F23.5°C 58.1°F14.5°C 57% 4.0 mph NW6.4 kmh NW 8.1 mph13.0 kmh 29.80 in1009.1 mb 0.00 in0.0 mm 0.00 in0.0 mm 0.00 in0.0 mm
07:18 AM 74.5°F23.6°C 58.8°F14.9°C 58% 2.9 mph NW4.7 kmh NW 6.9 mph11.1 kmh 29.80 in1009.1 mb 0.00 in0.0 mm 0.00 in0.0 mm 0.00 in0.0 mm
07:23 AM 74.7°F23.7°C 58.8°F14.9°C 58% 2.9 mph NNW4.7 kmh NNW 8.1 mph13.0 kmh 29.80 in1009.1 mb 0.00 in0.0 mm 0.00 in0.0 mm 0.00 in0.0 mm
07:28 AM 74.8°F23.8°C 59.0°F15.0°C 58% 2.9 mph NW4.7 kmh NW 8.1 mph13.0 kmh 29.80 in1009.1 mb 0.00 in0.0 mm 0.00 in0.0 mm 0.00 in0.0 mm
07:33 AM 75.0°F23.9°C 58.8°F14.9°C 57% 2.0 mph NW3.2 kmh NW 6.0 mph9.7 kmh 29.80 in1009.1 mb 0.00 in0.0 mm 0.00 in0.0 mm 0.00 in0.0 mm
07:38 AM 75.4°F24.1°C 59.5°F15.3°C 58% 2.0 mph N3.2 kmh N 4.9 mph7.9 kmh 29.80 in1009.1 mb 0.00 in0.0 mm 0.00 in0.0 mm 0.00 in0.0 mm
07:43 AM 75.4°F24.1°C 59.5°F15.3°C 58% 2.0 mph WNW3.2 kmh WNW 4.9 mph7.9 kmh 29.80 in1009.1 mb 0.00 in0.0 mm 0.00 in0.0 mm 0.00 in0.0 mm
07:48 AM 75.9°F24.4°C 60.1°F15.6°C 58% 2.0 mph NNW3.2 kmh NNW 4.9 mph7.9 kmh 29.80 in1009.1 mb 0.00 in0.0 mm 0.00 in0.0 mm 0.00 in0.0 mm
07:53 AM 76.3°F24.6°C 59.9°F15.5°C 57% 2.0 mph NW3.2 kmh NW 4.9 mph7.9 kmh 29.81 in1009.5 mb 0.00 in0.0 mm 0.00 in0.0 mm 0.00 in0.0 mm
07:58 AM 76.6°F24.8°C 59.7°F15.4°C 56% 2.0 mph NW3.2 kmh NW 6.0 mph9.7 kmh 29.80 in1009.1 mb 0.00 in0.0 mm 0.00 in0.0 mm 0.00 in0.0 mm
08:03 AM 77.0°F25.0°C 59.5°F15.3°C 55% 2.0 mph NW3.2 kmh NW 6.0 mph9.7 kmh 29.81 in1009.5 mb 0.00 in0.0 mm 0.00 in0.0 mm 0.00 in0.0 mm
08:08 AM 77.5°F25.3°C 59.5°F15.3°C 54% 2.0 mph N3.2 kmh N 6.9 mph11.1 kmh 29.80 in1009.1 mb 0.00 in0.0 mm 0.00 in0.0 mm 0.00 in0.0 mm
08:13 AM 77.9°F25.5°C 59.4°F15.2°C 53% 2.0 mph NW3.2 kmh NW 8.1 mph13.0 kmh 29.80 in1009.1 mb 0.00 in0.0 mm 0.00 in0.0 mm 0.00 in0.0 mm
08:18 AM 78.3°F25.7°C 59.7°F15.4°C 53% 2.9 mph W4.7 kmh W 6.9 mph11.1 kmh 29.81 in1009.5 mb 0.00 in0.0 mm 0.00 in0.0 mm 0.00 in0.0 mm
08:23 AM 78.4°F25.8°C 59.4°F15.2°C 52% 2.9 mph WNW4.7 kmh WNW 8.1 mph13.0 kmh 29.81 in1009.5 mb 0.00 in0.0 mm 0.00 in0.0 mm 0.00 in0.0 mm
08:28 AM 78.8°F26.0°C 59.7°F15.4°C 52% 2.9 mph WNW4.7 kmh WNW 6.0 mph9.7 kmh 29.81 in1009.5 mb 0.00 in0.0 mm 0.00 in0.0 mm 0.00 in0.0 mm
08:33 AM 79.3°F26.3°C 59.7°F15.4°C 51% 2.0 mph NNW3.2 kmh NNW 2.9 mph4.7 kmh 29.81 in1009.5 mb 0.00 in0.0 mm 0.00 in0.0 mm 0.00 in0.0 mm
08:38 AM 79.9°F26.6°C 60.1°F15.6°C 51% 2.0 mph NW3.2 kmh NW 4.9 mph7.9 kmh 29.81 in1009.5 mb 0.00 in0.0 mm 0.00 in0.0 mm 0.00 in0.0 mm
08:43 AM 80.1°F26.7°C 60.3°F15.7°C 51% 2.0 mph 3.2 kmh 4.9 mph7.9 kmh 29.81 in1009.5 mb 0.00 in0.0 mm 0.00 in0.0 mm 0.00 in0.0 mm
08:48 AM 80.2°F26.8°C 60.4°F15.8°C 51% 2.0 mph N3.2 kmh N 4.9 mph7.9 kmh 29.81 in1009.5 mb 0.00 in0.0 mm 0.00 in0.0 mm 0.00 in0.0 mm
08:53 AM 80.4°F26.9°C 60.6°F15.9°C 51% 2.0 mph NNW3.2 kmh NNW 4.9 mph7.9 kmh 29.81 in1009.5 mb 0.00 in0.0 mm 0.00 in0.0 mm 0.00 in0.0 mm
08:58 AM 80.8°F27.1°C 61.0°F16.1°C 51% 2.0 mph NW3.2 kmh NW 4.0 mph6.4 kmh 29.81 in1009.5 mb 0.00 in0.0 mm 0.00 in0.0 mm 0.00 in0.0 mm
09:03 AM 81.1°F27.3°C 60.8°F16.0°C 50% 2.0 mph NW3.2 kmh NW 4.0 mph6.4 kmh 29.81 in1009.5 mb 0.00 in0.0 mm 0.00 in0.0 mm 0.00 in0.0 mm
09:08 AM 81.5°F27.5°C 60.4°F15.8°C 49% 2.0 mph NW3.2 kmh NW 4.0 mph6.4 kmh 29.81 in1009.5 mb 0.00 in0.0 mm 0.00 in0.0 mm 0.00 in0.0 mm
09:13 AM 81.9°F27.7°C 60.8°F16.0°C 49% 0.9 mph NW1.4 kmh NW 2.9 mph4.7 kmh 29.81 in1009.5 mb 0.00 in0.0 mm 0.00 in0.0 mm 0.00 in0.0 mm
09:18 AM 82.2°F27.9°C 62.8°F17.1°C 52% 0.9 mph ESE1.4 kmh ESE 2.9 mph4.7 kmh 29.81 in1009.5 mb 0.00 in0.0 mm 0.00 in0.0 mm 0.00 in0.0 mm
09:23 AM 82.0°F27.8°C 62.6°F17.0°C 52% 2.0 mph E3.2 kmh E 4.0 mph6.4 kmh 29.81 in1009.5 mb 0.00 in0.0 mm 0.00 in0.0 mm 0.00 in0.0 mm
09:28 AM 82.2°F27.9°C 63.3°F17.4°C 53% 2.0 mph E3.2 kmh E 2.9 mph4.7 kmh 29.81 in1009.5 mb 0.00 in0.0 mm 0.00 in0.0 mm 0.00 in0.0 mm
09:33 AM 82.9°F28.3°C 63.5°F17.5°C 52% 2.0 mph ESE3.2 kmh ESE 4.0 mph6.4 kmh 29.81 in1009.5 mb 0.00 in0.0 mm 0.00 in0.0 mm 0.00 in0.0 mm
09:38 AM 83.1°F28.4°C 63.7°F17.6°C 52% 2.0 mph ESE3.2 kmh ESE 4.0 mph6.4 kmh 29.82 in1009.8 mb 0.00 in0.0 mm 0.00 in0.0 mm 0.00 in0.0 mm
09:43 AM 82.8°F28.2°C 63.9°F17.7°C 53% 2.0 mph E3.2 kmh E 5.0 mph8.0 kmh 29.82 in1009.8 mb 0.00 in0.0 mm 0.00 in0.0 mm 0.00 in0.0 mm
09:48 AM 82.8°F28.2°C 64.4°F18.0°C 54% 2.9 mph E4.7 kmh E 6.0 mph9.7 kmh 29.82 in1009.8 mb 0.00 in0.0 mm 0.00 in0.0 mm 0.00 in0.0 mm
09:53 AM 82.6°F28.1°C 64.8°F18.2°C 55% 2.9 mph ESE4.7 kmh ESE 6.9 mph11.1 kmh 29.82 in1009.8 mb 0.00 in0.0 mm 0.00 in0.0 mm 0.00 in0.0 mm
09:58 AM 82.8°F28.2°C 64.9°F18.3°C 55% 2.9 mph SE4.7 kmh SE 4.0 mph6.4 kmh 29.82 in1009.8 mb 0.00 in0.0 mm 0.00 in0.0 mm 0.00 in0.0 mm
10:03 AM 83.1°F28.4°C 65.3°F18.5°C 55% 2.0 mph E3.2 kmh E 4.0 mph6.4 kmh 29.82 in1009.8 mb 0.00 in0.0 mm 0.00 in0.0 mm 0.00 in0.0 mm
10:08 AM 82.8°F28.2°C 65.5°F18.6°C 56% 2.9 mph ESE4.7 kmh ESE 6.9 mph11.1 kmh 29.82 in1009.8 mb 0.00 in0.0 mm 0.00 in0.0 mm 0.00 in0.0 mm
10:13 AM 82.8°F28.2°C 66.0°F18.9°C 57% 2.9 mph E4.7 kmh E 6.9 mph11.1 kmh 29.82 in1009.8 mb 0.00 in0.0 mm 0.00 in0.0 mm 0.00 in0.0 mm
10:18 AM 83.1°F28.4°C 66.7°F19.3°C 58% 2.9 mph ESE4.7 kmh ESE 6.0 mph9.7 kmh 29.82 in1009.8 mb 0.00 in0.0 mm 0.00 in0.0 mm 0.00 in0.0 mm
10:23 AM 82.9°F28.3°C 66.6°F19.2°C 58% 2.9 mph ESE4.7 kmh ESE 6.0 mph9.7 kmh 29.82 in1009.8 mb 0.00 in0.0 mm 0.00 in0.0 mm 0.00 in0.0 mm
10:28 AM 82.8°F28.2°C 66.9°F19.4°C 59% 2.9 mph E4.7 kmh E 7.0 mph11.3 kmh 29.82 in1009.8 mb 0.00 in0.0 mm 0.00 in0.0 mm 0.00 in0.0 mm
10:33 AM 83.1°F28.4°C 67.8°F19.9°C 60% 2.9 mph SE4.7 kmh SE 6.0 mph9.7 kmh 29.82 in1009.8 mb 0.00 in0.0 mm 0.00 in0.0 mm 0.00 in0.0 mm
10:38 AM 83.1°F28.4°C 67.8°F19.9°C 60% 2.9 mph SE4.7 kmh SE 6.9 mph11.1 kmh 29.81 in1009.5 mb 0.00 in0.0 mm 0.00 in0.0 mm 0.00 in0.0 mm
10:43 AM 83.5°F28.6°C 68.2°F20.1°C 60% 2.9 mph SE4.7 kmh SE 6.9 mph11.1 kmh 29.81 in1009.5 mb 0.00 in0.0 mm 0.00 in0.0 mm 0.00 in0.0 mm
10:48 AM 83.5°F28.6°C 68.5°F20.3°C 61% 4.0 mph SE6.4 kmh SE 6.9 mph11.1 kmh 29.81 in1009.5 mb 0.00 in0.0 mm 0.00 in0.0 mm 0.00 in0.0 mm
10:53 AM 83.7°F28.7°C 68.7°F20.4°C 61% 4.0 mph ESE6.4 kmh ESE 8.1 mph13.0 kmh 29.81 in1009.5 mb 0.00 in0.0 mm 0.00 in0.0 mm 0.00 in0.0 mm
10:58 AM 83.5°F28.6°C 69.1°F20.6°C 62% 4.0 mph SE6.4 kmh SE 6.9 mph11.1 kmh 29.81 in1009.5 mb 0.00 in0.0 mm 0.00 in0.0 mm 0.00 in0.0 mm
11:03 AM 84.0°F28.9°C 69.1°F20.6°C 61% 2.9 mph SE4.7 kmh SE 6.9 mph11.1 kmh 29.81 in1009.5 mb 0.00 in0.0 mm 0.00 in0.0 mm 0.00 in0.0 mm
11:08 AM 84.6°F29.2°C 69.1°F20.6°C 60% 2.9 mph SSE4.7 kmh SSE 8.1 mph13.0 kmh 29.81 in1009.5 mb 0.00 in0.0 mm 0.00 in0.0 mm 0.00 in0.0 mm
11:13 AM 84.6°F29.2°C 68.7°F20.4°C 59% 2.9 mph SE4.7 kmh SE 8.1 mph13.0 kmh 29.81 in1009.5 mb 0.00 in0.0 mm 0.00 in0.0 mm 0.00 in0.0 mm
11:18 AM 84.6°F29.2°C 68.7°F20.4°C 59% 4.0 mph SE6.4 kmh SE 8.9 mph14.3 kmh 29.81 in1009.5 mb 0.00 in0.0 mm 0.00 in0.0 mm 0.00 in0.0 mm
11:23 AM 84.7°F29.3°C 68.4°F20.2°C 58% 4.9 mph ESE7.9 kmh ESE 8.9 mph14.3 kmh 29.81 in1009.5 mb 0.00 in0.0 mm 0.00 in0.0 mm 0.00 in0.0 mm
11:28 AM 84.9°F29.4°C 68.0°F20.0°C 57% 4.0 mph SE6.4 kmh SE 11.0 mph17.7 kmh 29.81 in1009.5 mb 0.00 in0.0 mm 0.00 in0.0 mm 0.00 in0.0 mm
11:33 AM 85.3°F29.6°C 68.9°F20.5°C 58% 4.0 mph ESE6.4 kmh ESE 8.9 mph14.3 kmh 29.81 in1009.5 mb 0.00 in0.0 mm 0.00 in0.0 mm 0.00 in0.0 mm
11:38 AM 84.9°F29.4°C 68.9°F20.5°C 59% 4.0 mph S6.4 kmh S 8.1 mph13.0 kmh 29.80 in1009.1 mb 0.00 in0.0 mm 0.00 in0.0 mm 0.00 in0.0 mm
11:43 AM 84.9°F29.4°C 69.4°F20.8°C 60% 4.0 mph SSE6.4 kmh SSE 8.9 mph14.3 kmh 29.80 in1009.1 mb 0.00 in0.0 mm 0.00 in0.0 mm 0.00 in0.0 mm
11:48 AM 85.3°F29.6°C 69.8°F21.0°C 60% 2.9 mph SSE4.7 kmh SSE 8.9 mph14.3 kmh 29.80 in1009.1 mb 0.00 in0.0 mm 0.00 in0.0 mm 0.00 in0.0 mm
11:53 AM 85.3°F29.6°C 69.3°F20.7°C 59% 2.9 mph SE4.7 kmh SE 8.1 mph13.0 kmh 29.80 in1009.1 mb 0.00 in0.0 mm 0.00 in0.0 mm 0.00 in0.0 mm
11:58 AM 85.5°F29.7°C 69.4°F20.8°C 59% 4.0 mph S6.4 kmh S 8.1 mph13.0 kmh 29.80 in1009.1 mb 0.00 in0.0 mm 0.00 in0.0 mm 0.00 in0.0 mm
12:03 PM 85.3°F29.6°C 69.3°F20.7°C 59% 4.0 mph SE6.4 kmh SE 8.9 mph14.3 kmh 29.80 in1009.1 mb 0.00 in0.0 mm 0.00 in0.0 mm 0.00 in0.0 mm
12:08 PM 84.7°F29.3°C 68.9°F20.5°C 59% 4.0 mph SE6.4 kmh SE 10.1 mph16.3 kmh 29.80 in1009.1 mb 0.00 in0.0 mm 0.00 in0.0 mm 0.00 in0.0 mm
12:13 PM 84.9°F29.4°C 69.4°F20.8°C 60% 4.0 mph SE6.4 kmh SE 8.1 mph13.0 kmh 29.80 in1009.1 mb 0.00 in0.0 mm 0.00 in0.0 mm 0.00 in0.0 mm
12:19 PM 85.5°F29.7°C 70.0°F21.1°C 60% 2.9 mph E4.7 kmh E 8.1 mph13.0 kmh 29.80 in1009.1 mb 0.00 in0.0 mm 0.00 in0.0 mm 0.00 in0.0 mm
12:24 PM 85.6°F29.8°C 69.6°F20.9°C 59% 2.9 mph SSE4.7 kmh SSE 6.9 mph11.1 kmh 29.80 in1009.1 mb 0.00 in0.0 mm 0.00 in0.0 mm 0.00 in0.0 mm
12:29 PM 85.5°F29.7°C 69.4°F20.8°C 59% 2.9 mph SSE4.7 kmh SSE 8.9 mph14.3 kmh 29.80 in1009.1 mb 0.00 in0.0 mm 0.00 in0.0 mm 0.00 in0.0 mm
12:34 PM 85.5°F29.7°C 70.0°F21.1°C 60% 4.0 mph S6.4 kmh S 8.1 mph13.0 kmh 29.79 in1008.8 mb 0.00 in0.0 mm 0.00 in0.0 mm 0.00 in0.0 mm
12:39 PM 85.6°F29.8°C 70.2°F21.2°C 60% 2.9 mph SE4.7 kmh SE 6.0 mph9.7 kmh 29.79 in1008.8 mb 0.00 in0.0 mm 0.00 in0.0 mm 0.00 in0.0 mm
12:44 PM 85.6°F29.8°C 70.2°F21.2°C 60% 2.9 mph ESE4.7 kmh ESE 8.1 mph13.0 kmh 29.79 in1008.8 mb 0.00 in0.0 mm 0.00 in0.0 mm 0.00 in0.0 mm
12:49 PM 85.1°F29.5°C 69.6°F20.9°C 60% 4.0 mph SSE6.4 kmh SSE 6.9 mph11.1 kmh 29.79 in1008.8 mb 0.00 in0.0 mm 0.00 in0.0 mm 0.00 in0.0 mm
12:54 PM 85.5°F29.7°C 70.5°F21.4°C 61% 2.9 mph ESE4.7 kmh ESE 8.1 mph13.0 kmh 29.79 in1008.8 mb 0.00 in0.0 mm 0.00 in0.0 mm 0.00 in0.0 mm
12:59 PM 86.0°F30.0°C 71.1°F21.7°C 61% 2.9 mph ESE4.7 kmh ESE 6.9 mph11.1 kmh 29.79 in1008.8 mb 0.00 in0.0 mm 0.00 in0.0 mm 0.00 in0.0 mm
01:04 PM 86.2°F30.1°C 71.1°F21.7°C 61% 2.9 mph SE4.7 kmh SE 8.9 mph14.3 kmh 29.79 in1008.8 mb 0.00 in0.0 mm 0.00 in0.0 mm 0.00 in0.0 mm
01:09 PM 85.8°F29.9°C 70.9°F21.6°C 61% 4.0 mph SE6.4 kmh SE 10.1 mph16.3 kmh 29.79 in1008.8 mb 0.00 in0.0 mm 0.00 in0.0 mm 0.00 in0.0 mm
01:14 PM 86.0°F30.0°C 71.1°F21.7°C 61% 4.9 mph SE7.9 kmh SE 10.1 mph16.3 kmh 29.79 in1008.8 mb 0.00 in0.0 mm 0.00 in0.0 mm 0.00 in0.0 mm
01:19 PM 85.8°F29.9°C 71.2°F21.8°C 62% 4.9 mph SE7.9 kmh SE 10.1 mph16.3 kmh 29.79 in1008.8 mb 0.00 in0.0 mm 0.00 in0.0 mm 0.00 in0.0 mm
01:24 PM 85.8°F29.9°C 71.2°F21.8°C 62% 4.0 mph SE6.4 kmh SE 11.0 mph17.7 kmh 29.79 in1008.8 mb 0.00 in0.0 mm 0.00 in0.0 mm 0.00 in0.0 mm
01:29 PM 85.8°F29.9°C 70.9°F21.6°C 61% 4.0 mph SE6.4 kmh SE 8.1 mph13.0 kmh 29.78 in1008.5 mb 0.00 in0.0 mm 0.00 in0.0 mm 0.00 in0.0 mm
01:34 PM 86.2°F30.1°C 71.6°F22.0°C 62% 2.9 mph SE4.7 kmh SE 10.1 mph16.3 kmh 29.78 in1008.5 mb 0.00 in0.0 mm 0.00 in0.0 mm 0.00 in0.0 mm
01:39 PM 86.0°F30.0°C 71.1°F21.7°C 61% 4.0 mph SSE6.4 kmh SSE 8.9 mph14.3 kmh 29.78 in1008.5 mb 0.00 in0.0 mm 0.00 in0.0 mm 0.00 in0.0 mm
01:44 PM 85.8°F29.9°C 71.2°F21.8°C 62% 4.9 mph SE7.9 kmh SE 11.0 mph17.7 kmh 29.78 in1008.5 mb 0.00 in0.0 mm 0.00 in0.0 mm 0.00 in0.0 mm
01:49 PM 85.8°F29.9°C 71.2°F21.8°C 62% 4.9 mph SSE7.9 kmh SSE 8.9 mph14.3 kmh 29.78 in1008.5 mb 0.00 in0.0 mm 0.00 in0.0 mm 0.00 in0.0 mm
01:54 PM 86.2°F30.1°C 71.6°F22.0°C 62% 2.9 mph SE4.7 kmh SE 8.9 mph14.3 kmh 29.77 in1008.1 mb 0.00 in0.0 mm 0.00 in0.0 mm 0.00 in0.0 mm
01:59 PM 85.6°F29.8°C 70.7°F21.5°C 61% 4.0 mph SE6.4 kmh SE 8.9 mph14.3 kmh 29.77 in1008.1 mb 0.00 in0.0 mm 0.00 in0.0 mm 0.00 in0.0 mm
02:04 PM 85.8°F29.9°C 71.2°F21.8°C 62% 4.0 mph SSE6.4 kmh SSE 8.1 mph13.0 kmh 29.77 in1008.1 mb 0.00 in0.0 mm 0.00 in0.0 mm 0.00 in0.0 mm
02:09 PM 85.8°F29.9°C 70.9°F21.6°C 61% 4.0 mph SE6.4 kmh SE 8.9 mph14.3 kmh 29.77 in1008.1 mb 0.00 in0.0 mm 0.00 in0.0 mm 0.00 in0.0 mm
02:14 PM 86.2°F30.1°C 71.1°F21.7°C 61% 4.0 mph ESE6.4 kmh ESE 6.9 mph11.1 kmh 29.76 in1007.8 mb 0.00 in0.0 mm 0.00 in0.0 mm 0.00 in0.0 mm
02:19 PM 86.2°F30.1°C 70.7°F21.5°C 60% 2.9 mph SE4.7 kmh SE 8.9 mph14.3 kmh 29.76 in1007.8 mb 0.00 in0.0 mm 0.00 in0.0 mm 0.00 in0.0 mm
02:24 PM 85.6°F29.8°C 69.1°F20.6°C 58% 4.0 mph SE6.4 kmh SE 8.9 mph14.3 kmh 29.76 in1007.8 mb 0.00 in0.0 mm 0.00 in0.0 mm 0.00 in0.0 mm
02:29 PM 86.2°F30.1°C 69.6°F20.9°C 58% 4.0 mph SE6.4 kmh SE 8.9 mph14.3 kmh 29.76 in1007.8 mb 0.00 in0.0 mm 0.00 in0.0 mm 0.00 in0.0 mm
02:34 PM 85.6°F29.8°C 69.6°F20.9°C 59% 2.9 mph S4.7 kmh S 8.1 mph13.0 kmh 29.75 in1007.5 mb 0.00 in0.0 mm 0.00 in0.0 mm 0.00 in0.0 mm
02:39 PM 85.8°F29.9°C 70.3°F21.3°C 60% 4.0 mph ESE6.4 kmh ESE 8.1 mph13.0 kmh 29.75 in1007.5 mb 0.00 in0.0 mm 0.00 in0.0 mm 0.00 in0.0 mm
02:44 PM 85.6°F29.8°C 69.6°F20.9°C 59% 2.9 mph SSE4.7 kmh SSE 9.0 mph14.5 kmh 29.75 in1007.5 mb 0.00 in0.0 mm 0.00 in0.0 mm 0.00 in0.0 mm
02:54 PM 86.0°F30.0°C 68.9°F20.5°C 57% 4.0 mph SSE6.4 kmh SSE 9.0 mph14.5 kmh 29.75 in1007.5 mb 0.00 in0.0 mm 0.00 in0.0 mm 0.00 in0.0 mm
02:59 PM 86.0°F30.0°C 70.0°F21.1°C 59% 4.0 mph S6.4 kmh S 6.9 mph11.1 kmh 29.74 in1007.1 mb 0.00 in0.0 mm 0.00 in0.0 mm 0.00 in0.0 mm
03:04 PM 85.8°F29.9°C 69.3°F20.7°C 58% 4.0 mph SE6.4 kmh SE 8.9 mph14.3 kmh 29.74 in1007.1 mb 0.00 in0.0 mm 0.00 in0.0 mm 0.00 in0.0 mm
03:09 PM 85.6°F29.8°C 70.2°F21.2°C 60% 4.0 mph SE6.4 kmh SE 8.1 mph13.0 kmh 29.74 in1007.1 mb 0.00 in0.0 mm 0.00 in0.0 mm 0.00 in0.0 mm
03:14 PM 85.6°F29.8°C 70.2°F21.2°C 60% 4.0 mph SSE6.4 kmh SSE 8.1 mph13.0 kmh 29.74 in1007.1 mb 0.00 in0.0 mm 0.00 in0.0 mm 0.00 in0.0 mm
03:19 PM 85.8°F29.9°C 69.8°F21.0°C 59% 4.9 mph SE7.9 kmh SE 8.1 mph13.0 kmh 29.74 in1007.1 mb 0.00 in0.0 mm 0.00 in0.0 mm 0.00 in0.0 mm
03:24 PM 85.8°F29.9°C 69.3°F20.7°C 58% 4.9 mph SSE7.9 kmh SSE 10.1 mph16.3 kmh 29.74 in1007.1 mb 0.00 in0.0 mm 0.00 in0.0 mm 0.00 in0.0 mm
03:29 PM 85.6°F29.8°C 69.6°F20.9°C 59% 4.9 mph S7.9 kmh S 8.9 mph14.3 kmh 29.74 in1007.1 mb 0.00 in0.0 mm 0.00 in0.0 mm 0.00 in0.0 mm
03:34 PM 85.6°F29.8°C 69.1°F20.6°C 58% 4.9 mph S7.9 kmh S 10.1 mph16.3 kmh 29.73 in1006.8 mb 0.00 in0.0 mm 0.00 in0.0 mm 0.00 in0.0 mm
03:39 PM 85.5°F29.7°C 69.4°F20.8°C 59% 4.9 mph SE7.9 kmh SE 10.1 mph16.3 kmh 29.73 in1006.8 mb 0.00 in0.0 mm 0.00 in0.0 mm 0.00 in0.0 mm
03:44 PM 85.5°F29.7°C 69.4°F20.8°C 59% 4.9 mph SE7.9 kmh SE 8.9 mph14.3 kmh 29.73 in1006.8 mb 0.00 in0.0 mm 0.00 in0.0 mm 0.00 in0.0 mm
03:49 PM 85.6°F29.8°C 69.6°F20.9°C 59% 4.9 mph SE7.9 kmh SE 10.1 mph16.3 kmh 29.73 in1006.8 mb 0.00 in0.0 mm 0.00 in0.0 mm 0.00 in0.0 mm
03:54 PM 85.5°F29.7°C 69.1°F20.6°C 58% 4.9 mph SSE7.9 kmh SSE 8.9 mph14.3 kmh 29.73 in1006.8 mb 0.00 in0.0 mm 0.00 in0.0 mm 0.00 in0.0 mm
03:59 PM 85.3°F29.6°C 68.9°F20.5°C 58% 6.0 mph SSE9.7 kmh SSE 10.1 mph16.3 kmh 29.73 in1006.8 mb 0.00 in0.0 mm 0.00 in0.0 mm 0.00 in0.0 mm
04:04 PM 85.5°F29.7°C 69.1°F20.6°C 58% 4.9 mph S7.9 kmh S 8.9 mph14.3 kmh 29.73 in1006.8 mb 0.00 in0.0 mm 0.00 in0.0 mm 0.00 in0.0 mm
04:09 PM 85.6°F29.8°C 69.1°F20.6°C 58% 4.0 mph SSE6.4 kmh SSE 8.1 mph13.0 kmh 29.73 in1006.8 mb 0.00 in0.0 mm 0.00 in0.0 mm 0.00 in0.0 mm
04:14 PM 85.5°F29.7°C 69.4°F20.8°C 59% 4.0 mph S6.4 kmh S 8.9 mph14.3 kmh 29.73 in1006.8 mb 0.00 in0.0 mm 0.00 in0.0 mm 0.00 in0.0 mm
04:19 PM 85.6°F29.8°C 69.6°F20.9°C 59% 4.0 mph SSE6.4 kmh SSE 8.1 mph13.0 kmh 29.73 in1006.8 mb 0.00 in0.0 mm 0.00 in0.0 mm 0.00 in0.0 mm
04:24 PM 85.6°F29.8°C 69.6°F20.9°C 59% 2.9 mph SSE4.7 kmh SSE 10.1 mph16.3 kmh 29.73 in1006.8 mb 0.00 in0.0 mm 0.00 in0.0 mm 0.00 in0.0 mm
04:29 PM 85.5°F29.7°C 70.0°F21.1°C 60% 4.0 mph S6.4 kmh S 8.9 mph14.3 kmh 29.73 in1006.8 mb 0.00 in0.0 mm 0.00 in0.0 mm 0.00 in0.0 mm
04:34 PM 85.1°F29.5°C 70.2°F21.2°C 61% 4.0 mph S6.4 kmh S 8.9 mph14.3 kmh 29.73 in1006.8 mb 0.00 in0.0 mm 0.00 in0.0 mm 0.00 in0.0 mm
04:39 PM 84.9°F29.4°C 70.0°F21.1°C 61% 4.9 mph SSE7.9 kmh SSE 11.0 mph17.7 kmh 29.74 in1007.1 mb 0.00 in0.0 mm 0.00 in0.0 mm 0.00 in0.0 mm
04:44 PM 84.9°F29.4°C 70.0°F21.1°C 61% 4.9 mph SSE7.9 kmh SSE 8.9 mph14.3 kmh 29.74 in1007.1 mb 0.00 in0.0 mm 0.00 in0.0 mm 0.00 in0.0 mm
04:49 PM 84.9°F29.4°C 70.5°F21.4°C 62% 4.0 mph SSE6.4 kmh SSE 10.1 mph16.3 kmh 29.73 in1006.8 mb 0.00 in0.0 mm 0.00 in0.0 mm 0.00 in0.0 mm
04:54 PM 84.7°F29.3°C 69.8°F21.0°C 61% 4.9 mph S7.9 kmh S 10.1 mph16.3 kmh 29.74 in1007.1 mb 0.00 in0.0 mm 0.00 in0.0 mm 0.00 in0.0 mm
04:59 PM 84.7°F29.3°C 70.3°F21.3°C 62% 4.9 mph ESE7.9 kmh ESE 10.1 mph16.3 kmh 29.74 in1007.1 mb 0.00 in0.0 mm 0.00 in0.0 mm 0.00 in0.0 mm
05:04 PM 84.7°F29.3°C 70.7°F21.5°C 63% 4.0 mph SSE6.4 kmh SSE 10.1 mph16.3 kmh 29.73 in1006.8 mb 0.00 in0.0 mm 0.00 in0.0 mm 0.00 in0.0 mm
05:09 PM 84.2°F29.0°C 69.3°F20.7°C 61% 4.9 mph S7.9 kmh S 10.1 mph16.3 kmh 29.73 in1006.8 mb 0.00 in0.0 mm 0.00 in0.0 mm 0.00 in0.0 mm
05:14 PM 84.0°F28.9°C 70.0°F21.1°C 63% 4.9 mph SE7.9 kmh SE 10.1 mph16.3 kmh 29.73 in1006.8 mb 0.00 in0.0 mm 0.00 in0.0 mm 0.00 in0.0 mm
05:19 PM 83.7°F28.7°C 69.8°F21.0°C 63% 4.9 mph SSW7.9 kmh SSW 8.9 mph14.3 kmh 29.73 in1006.8 mb 0.00 in0.0 mm 0.00 in0.0 mm 0.00 in0.0 mm
05:24 PM 83.7°F28.7°C 70.2°F21.2°C 64% 4.0 mph SSE6.4 kmh SSE 8.1 mph13.0 kmh 29.73 in1006.8 mb 0.00 in0.0 mm 0.00 in0.0 mm 0.00 in0.0 mm
05:29 PM 83.5°F28.6°C 69.6°F20.9°C 63% 4.0 mph S6.4 kmh S 10.1 mph16.3 kmh 29.73 in1006.8 mb 0.00 in0.0 mm 0.00 in0.0 mm 0.00 in0.0 mm
05:34 PM 83.5°F28.6°C 70.0°F21.1°C 64% 4.0 mph SSW6.4 kmh SSW 10.1 mph16.3 kmh 29.73 in1006.8 mb 0.00 in0.0 mm 0.00 in0.0 mm 0.00 in0.0 mm
05:39 PM 83.5°F28.6°C 70.5°F21.4°C 65% 4.0 mph S6.4 kmh S 10.1 mph16.3 kmh 29.73 in1006.8 mb 0.00 in0.0 mm 0.00 in0.0 mm 0.00 in0.0 mm
05:44 PM 83.5°F28.6°C 70.5°F21.4°C 65% 4.0 mph S6.4 kmh S 6.9 mph11.1 kmh 29.73 in1006.8 mb 0.00 in0.0 mm 0.00 in0.0 mm 0.00 in0.0 mm
05:49 PM 83.1°F28.4°C 70.2°F21.2°C 65% 4.0 mph S6.4 kmh S 8.1 mph13.0 kmh 29.73 in1006.8 mb 0.00 in0.0 mm 0.00 in0.0 mm 0.00 in0.0 mm
05:54 PM 83.1°F28.4°C 70.5°F21.4°C 66% 4.0 mph S6.4 kmh S 8.1 mph13.0 kmh 29.73 in1006.8 mb 0.00 in0.0 mm 0.00 in0.0 mm 0.00 in0.0 mm
05:59 PM 82.9°F28.3°C 70.3°F21.3°C 66% 4.0 mph S6.4 kmh S 8.9 mph14.3 kmh 29.74 in1007.1 mb 0.00 in0.0 mm 0.00 in0.0 mm 0.00 in0.0 mm
06:04 PM 82.8°F28.2°C 69.8°F21.0°C 65% 4.0 mph S6.4 kmh S 8.9 mph14.3 kmh 29.74 in1007.1 mb 0.00 in0.0 mm 0.00 in0.0 mm 0.00 in0.0 mm
06:09 PM 82.8°F28.2°C 70.2°F21.2°C 66% 4.0 mph S6.4 kmh S 8.1 mph13.0 kmh 29.74 in1007.1 mb 0.00 in0.0 mm 0.00 in0.0 mm 0.00 in0.0 mm
06:14 PM 82.8°F28.2°C 70.7°F21.5°C 67% 4.0 mph S6.4 kmh S 10.1 mph16.3 kmh 29.74 in1007.1 mb 0.00 in0.0 mm 0.00 in0.0 mm 0.00 in0.0 mm
06:19 PM 82.4°F28.0°C 70.7°F21.5°C 68% 4.0 mph S6.4 kmh S 8.9 mph14.3 kmh 29.74 in1007.1 mb 0.00 in0.0 mm 0.00 in0.0 mm 0.00 in0.0 mm
06:24 PM 82.4°F28.0°C 70.7°F21.5°C 68% 4.0 mph SSE6.4 kmh SSE 8.9 mph14.3 kmh 29.74 in1007.1 mb 0.00 in0.0 mm 0.00 in0.0 mm 0.00 in0.0 mm
06:29 PM 82.4°F28.0°C 71.2°F21.8°C 69% 2.9 mph S4.7 kmh S 6.9 mph11.1 kmh 29.74 in1007.1 mb 0.00 in0.0 mm 0.00 in0.0 mm 0.00 in0.0 mm
06:34 PM 82.0°F27.8°C 70.9°F21.6°C 69% 2.9 mph SSE4.7 kmh SSE 8.1 mph13.0 kmh 29.74 in1007.1 mb 0.00 in0.0 mm 0.00 in0.0 mm 0.00 in0.0 mm
06:39 PM 81.9°F27.7°C 70.7°F21.5°C 69% 2.9 mph S4.7 kmh S 6.9 mph11.1 kmh 29.74 in1007.1 mb 0.00 in0.0 mm 0.00 in0.0 mm 0.00 in0.0 mm
06:44 PM 81.7°F27.6°C 70.5°F21.4°C 69% 2.0 mph SW3.2 kmh SW 6.9 mph11.1 kmh 29.74 in1007.1 mb 0.00 in0.0 mm 0.00 in0.0 mm 0.00 in0.0 mm
06:49 PM 81.5°F27.5°C 70.3°F21.3°C 69% 2.0 mph S3.2 kmh S 6.9 mph11.1 kmh 29.74 in1007.1 mb 0.00 in0.0 mm 0.00 in0.0 mm 0.00 in0.0 mm
06:54 PM 81.3°F27.4°C 70.2°F21.2°C 69% 2.9 mph S4.7 kmh S 6.9 mph11.1 kmh 29.74 in1007.1 mb 0.00 in0.0 mm 0.00 in0.0 mm 0.00 in0.0 mm
06:59 PM 81.1°F27.3°C 70.0°F21.1°C 69% 2.9 mph S4.7 kmh S 6.0 mph9.7 kmh 29.75 in1007.5 mb 0.00 in0.0 mm 0.00 in0.0 mm 0.00 in0.0 mm
07:04 PM 81.1°F27.3°C 70.0°F21.1°C 69% 2.9 mph SSE4.7 kmh SSE 8.1 mph13.0 kmh 29.75 in1007.5 mb 0.00 in0.0 mm 0.00 in0.0 mm 0.00 in0.0 mm
07:09 PM 81.1°F27.3°C 70.0°F21.1°C 69% 2.9 mph S4.7 kmh S 6.0 mph9.7 kmh 29.75 in1007.5 mb 0.00 in0.0 mm 0.00 in0.0 mm 0.00 in0.0 mm
07:14 PM 81.1°F27.3°C 70.3°F21.3°C 70% 2.9 mph S4.7 kmh S 4.9 mph7.9 kmh 29.75 in1007.5 mb 0.00 in0.0 mm 0.00 in0.0 mm 0.00 in0.0 mm
07:19 PM 81.0°F27.2°C 70.2°F21.2°C 70% 2.0 mph S3.2 kmh S 4.9 mph7.9 kmh 29.75 in1007.5 mb 0.00 in0.0 mm 0.00 in0.0 mm 0.00 in0.0 mm
07:24 PM 81.0°F27.2°C 70.2°F21.2°C 70% 0.9 mph SW1.4 kmh SW 2.9 mph4.7 kmh 29.75 in1007.5 mb 0.00 in0.0 mm 0.00 in0.0 mm 0.00 in0.0 mm
07:29 PM 80.8°F27.1°C 70.2°F21.2°C 70% 0.9 mph SW1.4 kmh SW 2.9 mph4.7 kmh 29.75 in1007.5 mb 0.00 in0.0 mm 0.00 in0.0 mm 0.00 in0.0 mm
07:34 PM 80.4°F26.9°C 69.8°F21.0°C 70% 0.9 mph SW1.4 kmh SW 4.0 mph6.4 kmh 29.76 in1007.8 mb 0.00 in0.0 mm 0.00 in0.0 mm 0.00 in0.0 mm
07:39 PM 80.2°F26.8°C 69.6°F20.9°C 70% 2.0 mph SW3.2 kmh SW 2.9 mph4.7 kmh 29.76 in1007.8 mb 0.00 in0.0 mm 0.00 in0.0 mm 0.00 in0.0 mm
07:44 PM 80.2°F26.8°C 69.6°F20.9°C 70% 2.0 mph SW3.2 kmh SW 2.9 mph4.7 kmh 29.76 in1007.8 mb 0.00 in0.0 mm 0.00 in0.0 mm 0.00 in0.0 mm
07:49 PM 80.1°F26.7°C 69.4°F20.8°C 70% 2.0 mph SW3.2 kmh SW 4.0 mph6.4 kmh 29.76 in1007.8 mb 0.00 in0.0 mm 0.00 in0.0 mm 0.00 in0.0 mm
07:54 PM 79.9°F26.6°C 69.3°F20.7°C 70% 2.0 mph SW3.2 kmh SW 4.0 mph6.4 kmh 29.76 in1007.8 mb 0.00 in0.0 mm 0.00 in0.0 mm 0.00 in0.0 mm
07:59 PM 79.9°F26.6°C 69.3°F20.7°C 70% 2.0 mph SW3.2 kmh SW 4.0 mph6.4 kmh 29.76 in1007.8 mb 0.00 in0.0 mm 0.00 in0.0 mm 0.00 in0.0 mm
08:04 PM 79.9°F26.6°C 69.3°F20.7°C 70% 2.0 mph SW3.2 kmh SW 4.0 mph6.4 kmh 29.76 in1007.8 mb 0.00 in0.0 mm 0.00 in0.0 mm 0.00 in0.0 mm
08:09 PM 79.9°F26.6°C 69.6°F20.9°C 71% 2.0 mph SW3.2 kmh SW 4.0 mph6.4 kmh 29.76 in1007.8 mb 0.00 in0.0 mm 0.00 in0.0 mm 0.00 in0.0 mm
08:14 PM 79.7°F26.5°C 69.4°F20.8°C 71% 2.0 mph SW3.2 kmh SW 4.9 mph7.9 kmh 29.76 in1007.8 mb 0.00 in0.0 mm 0.00 in0.0 mm 0.00 in0.0 mm
08:19 PM 79.7°F26.5°C 69.4°F20.8°C 71% 2.0 mph SW3.2 kmh SW 4.0 mph6.4 kmh 29.76 in1007.8 mb 0.00 in0.0 mm 0.00 in0.0 mm 0.00 in0.0 mm
08:24 PM 79.5°F26.4°C 69.3°F20.7°C 71% 2.0 mph S3.2 kmh S 4.0 mph6.4 kmh 29.76 in1007.8 mb 0.00 in0.0 mm 0.00 in0.0 mm 0.00 in0.0 mm
08:29 PM 79.5°F26.4°C 69.3°F20.7°C 71% 2.0 mph SW3.2 kmh SW 4.0 mph6.4 kmh 29.76 in1007.8 mb 0.00 in0.0 mm 0.00 in0.0 mm 0.00 in0.0 mm
08:34 PM 79.5°F26.4°C 68.9°F20.5°C 70% 2.0 mph SW3.2 kmh SW 4.0 mph6.4 kmh 29.76 in1007.8 mb 0.00 in0.0 mm 0.00 in0.0 mm 0.00 in0.0 mm
08:39 PM 79.5°F26.4°C 68.9°F20.5°C 70% 2.0 mph SW3.2 kmh SW 4.0 mph6.4 kmh 29.75 in1007.5 mb 0.00 in0.0 mm 0.00 in0.0 mm 0.00 in0.0 mm
08:44 PM 79.3°F26.3°C 68.7°F20.4°C 70% 0.9 mph SW1.4 kmh SW 4.0 mph6.4 kmh 29.75 in1007.5 mb 0.00 in0.0 mm 0.00 in0.0 mm 0.00 in0.0 mm
08:49 PM 79.3°F26.3°C 68.4°F20.2°C 69% 0.9 mph SW1.4 kmh SW 2.9 mph4.7 kmh 29.75 in1007.5 mb 0.00 in0.0 mm 0.00 in0.0 mm 0.00 in0.0 mm
08:54 PM 79.3°F26.3°C 68.4°F20.2°C 69% 0.9 mph SW1.4 kmh SW 2.9 mph4.7 kmh 29.75 in1007.5 mb 0.00 in0.0 mm 0.00 in0.0 mm 0.00 in0.0 mm
08:59 PM 79.3°F26.3°C 68.4°F20.2°C 69% 0.9 mph SW1.4 kmh SW 0.9 mph1.4 kmh 29.75 in1007.5 mb 0.00 in0.0 mm 0.00 in0.0 mm 0.00 in0.0 mm
09:04 PM 79.3°F26.3°C 68.4°F20.2°C 69% Calm Calm 0.9 mph1.4 kmh 29.75 in1007.5 mb 0.00 in0.0 mm 0.00 in0.0 mm 0.00 in0.0 mm
09:09 PM 79.2°F26.2°C 68.2°F20.1°C 69% Calm Calm 2.0 mph3.2 kmh 29.75 in1007.5 mb 0.00 in0.0 mm 0.00 in0.0 mm 0.00 in0.0 mm
09:14 PM 79.0°F26.1°C 68.0°F20.0°C 69% 0.9 mph SW1.4 kmh SW 3.0 mph4.8 kmh 29.75 in1007.5 mb 0.00 in0.0 mm 0.00 in0.0 mm 0.00 in0.0 mm
09:19 PM 79.0°F26.1°C 68.0°F20.0°C 69% 2.0 mph SW3.2 kmh SW 2.0 mph3.2 kmh 29.75 in1007.5 mb 0.00 in0.0 mm 0.00 in0.0 mm 0.00 in0.0 mm
09:24 PM 79.0°F26.1°C 67.5°F19.7°C 68% 0.9 mph SW1.4 kmh SW 2.0 mph3.2 kmh 29.75 in1007.5 mb 0.00 in0.0 mm 0.00 in0.0 mm 0.00 in0.0 mm
09:29 PM 79.0°F26.1°C 67.5°F19.7°C 68% 0.9 mph SW1.4 kmh SW 2.0 mph3.2 kmh 29.75 in1007.5 mb 0.00 in0.0 mm 0.00 in0.0 mm 0.00 in0.0 mm
09:34 PM 79.0°F26.1°C 67.5°F19.7°C 68% Calm Calm -- 29.75 in1007.5 mb 0.00 in0.0 mm 0.00 in0.0 mm 0.00 in0.0 mm
09:39 PM 79.0°F26.1°C 67.5°F19.7°C 68% Calm Calm -- 29.75 in1007.5 mb 0.00 in0.0 mm 0.00 in0.0 mm 0.00 in0.0 mm
09:44 PM 79.0°F26.1°C 67.5°F19.7°C 68% Calm Calm 2.0 mph3.2 kmh 29.74 in1007.1 mb 0.00 in0.0 mm 0.00 in0.0 mm 0.00 in0.0 mm
09:49 PM 78.6°F25.9°C 67.1°F19.5°C 68% Calm Calm 0.9 mph1.4 kmh 29.74 in1007.1 mb 0.00 in0.0 mm 0.00 in0.0 mm 0.00 in0.0 mm
09:54 PM 78.4°F25.8°C 66.9°F19.4°C 68% Calm Calm 0.9 mph1.4 kmh 29.75 in1007.5 mb 0.00 in0.0 mm 0.00 in0.0 mm 0.00 in0.0 mm
09:59 PM 78.3°F25.7°C 66.7°F19.3°C 68% 0.9 mph SW1.4 kmh SW 3.0 mph4.8 kmh 29.74 in1007.1 mb 0.00 in0.0 mm 0.00 in0.0 mm 0.00 in0.0 mm
10:04 PM 78.1°F25.6°C 66.7°F19.3°C 68% 0.9 mph SW1.4 kmh SW 2.9 mph4.7 kmh 29.74 in1007.1 mb 0.00 in0.0 mm 0.00 in0.0 mm 0.00 in0.0 mm
10:09 PM 78.1°F25.6°C 65.8°F18.8°C 66% 2.0 mph WNW3.2 kmh WNW 5.0 mph8.0 kmh 29.74 in1007.1 mb 0.00 in0.0 mm 0.00 in0.0 mm 0.00 in0.0 mm
10:14 PM 77.7°F25.4°C 64.9°F18.3°C 65% 2.0 mph NW3.2 kmh NW 6.9 mph11.1 kmh 29.74 in1007.1 mb 0.00 in0.0 mm 0.00 in0.0 mm 0.00 in0.0 mm
10:19 PM 77.7°F25.4°C 64.9°F18.3°C 65% 2.9 mph NW4.7 kmh NW 6.9 mph11.1 kmh 29.74 in1007.1 mb 0.00 in0.0 mm 0.00 in0.0 mm 0.00 in0.0 mm
10:24 PM 77.5°F25.3°C 64.8°F18.2°C 65% 2.9 mph NNW4.7 kmh NNW 6.0 mph9.7 kmh 29.75 in1007.5 mb 0.00 in0.0 mm 0.00 in0.0 mm 0.00 in0.0 mm
10:29 PM 77.4°F25.2°C 64.8°F18.2°C 65% 2.0 mph NNW3.2 kmh NNW 2.9 mph4.7 kmh 29.75 in1007.5 mb 0.00 in0.0 mm 0.00 in0.0 mm 0.00 in0.0 mm
10:34 PM 77.4°F25.2°C 64.8°F18.2°C 65% 0.9 mph NNW1.4 kmh NNW 2.9 mph4.7 kmh 29.75 in1007.5 mb 0.00 in0.0 mm 0.00 in0.0 mm 0.00 in0.0 mm
10:39 PM 77.2°F25.1°C 64.6°F18.1°C 65% 0.9 mph NW1.4 kmh NW 4.0 mph6.4 kmh 29.75 in1007.5 mb 0.00 in0.0 mm 0.00 in0.0 mm 0.00 in0.0 mm
10:44 PM 76.8°F24.9°C 64.6°F18.1°C 66% 0.9 mph WNW1.4 kmh WNW 4.0 mph6.4 kmh 29.75 in1007.5 mb 0.00 in0.0 mm 0.00 in0.0 mm 0.00 in0.0 mm
10:49 PM 76.5°F24.7°C 64.8°F18.2°C 67% 0.9 mph NW1.4 kmh NW 5.0 mph8.0 kmh 29.75 in1007.5 mb 0.00 in0.0 mm 0.00 in0.0 mm 0.00 in0.0 mm
10:54 PM 76.3°F24.6°C 64.6°F18.1°C 67% 0.9 mph N1.4 kmh N 4.0 mph6.4 kmh 29.75 in1007.5 mb 0.00 in0.0 mm 0.00 in0.0 mm 0.00 in0.0 mm
10:59 PM 75.7°F24.3°C 64.4°F18.0°C 68% 0.9 mph N1.4 kmh N 2.9 mph4.7 kmh 29.75 in1007.5 mb 0.00 in0.0 mm 0.00 in0.0 mm 0.00 in0.0 mm
11:04 PM 75.6°F24.2°C 64.2°F17.9°C 68% 2.0 mph NW3.2 kmh NW 5.0 mph8.0 kmh 29.75 in1007.5 mb 0.00 in0.0 mm 0.00 in0.0 mm 0.00 in0.0 mm
11:09 PM 75.4°F24.1°C 64.0°F17.8°C 68% 2.9 mph NW4.7 kmh NW 4.9 mph7.9 kmh 29.75 in1007.5 mb 0.00 in0.0 mm 0.00 in0.0 mm 0.00 in0.0 mm
11:14 PM 75.4°F24.1°C 64.0°F17.8°C 68% 2.9 mph NW4.7 kmh NW 6.9 mph11.1 kmh 29.75 in1007.5 mb 0.00 in0.0 mm 0.00 in0.0 mm 0.00 in0.0 mm
11:19 PM 75.4°F24.1°C 64.0°F17.8°C 68% 2.0 mph NW3.2 kmh NW 2.9 mph4.7 kmh 29.75 in1007.5 mb 0.00 in0.0 mm 0.00 in0.0 mm 0.00 in0.0 mm
11:24 PM 75.4°F24.1°C 64.0°F17.8°C 68% 0.9 mph NW1.4 kmh NW 2.0 mph3.2 kmh 29.75 in1007.5 mb 0.00 in0.0 mm 0.00 in0.0 mm 0.00 in0.0 mm
11:29 PM 75.4°F24.1°C 63.7°F17.6°C 67% Calm Calm 2.0 mph3.2 kmh 29.75 in1007.5 mb 0.00 in0.0 mm 0.00 in0.0 mm 0.00 in0.0 mm
11:34 PM 75.6°F24.2°C 63.9°F17.7°C 67% 0.9 mph NW1.4 kmh NW 2.9 mph4.7 kmh 29.75 in1007.5 mb 0.00 in0.0 mm 0.00 in0.0 mm 0.00 in0.0 mm
11:39 PM 75.6°F24.2°C 63.9°F17.7°C 67% 0.9 mph NW1.4 kmh NW 2.9 mph4.7 kmh 29.75 in1007.5 mb 0.00 in0.0 mm 0.00 in0.0 mm 0.00 in0.0 mm
11:44 PM 75.6°F24.2°C 63.9°F17.7°C 67% 0.9 mph NW1.4 kmh NW 2.0 mph3.2 kmh 29.74 in1007.1 mb 0.00 in0.0 mm 0.00 in0.0 mm 0.00 in0.0 mm
11:49 PM 75.6°F24.2°C 63.3°F17.4°C 66% 0.9 mph NW1.4 kmh NW 2.9 mph4.7 kmh 29.74 in1007.1 mb 0.00 in0.0 mm 0.00 in0.0 mm 0.00 in0.0 mm
11:54 PM 75.4°F24.1°C 63.7°F17.6°C 67% 0.9 mph N1.4 kmh N 2.9 mph4.7 kmh 29.74 in1007.1 mb 0.00 in0.0 mm 0.00 in0.0 mm 0.00 in0.0 mm
11:59 PM 75.0°F23.9°C 63.3°F17.4°C 67% 0.9 mph WNW1.4 kmh WNW 4.0 mph6.4 kmh 29.74 in1007.1 mb 0.00 in0.0 mm 0.00 in0.0 mm 0.00 in0.0 mm